Alverda, Pennsylvania
Current Conditions -  °F | °C
As of 5:35 AM on Saturday 22 Nov 2014 (Local Time) from KIDI Reporting Station
Clear Clear  
Wind Chill: 16°   Ceiling: Unl
Heat Index: 16°   Visibility: 10mi
Dew Point:   Wind: 0mph
Humidity: 73%   Direction: NA
Pressure: 30.38"   Gusts: NA
Location:  40.63°N, 78.86°W
Report Text: KIDI 221035Z AUTO 00000KT 10SM CLR M09/M13 A3038 RMK A01
Loading
Personal Weather Stations






























Interactive Weather Map New forecast layout! Learn more

10-Day Weather Forecast

Advertisements
Track Severe Weather on mobile